createdAt,value
2024-03-12T00:01:09.861Z,98697.06
2024-03-12T00:03:39.330Z,98708.81
2024-03-12T00:06:06.858Z,98714.88
2024-03-12T00:08:33.681Z,98709.47
2024-03-12T00:11:00.985Z,98703.28
2024-03-12T00:13:27.965Z,98700.41
2024-03-12T00:15:55.848Z,98702.91
2024-03-12T00:18:27.072Z,98714.94
2024-03-12T00:20:54.586Z,98713.25
2024-03-12T00:23:21.935Z,98722.47
2024-03-12T00:25:48.502Z,98710.22
2024-03-12T00:28:15.118Z,98709.97
2024-03-12T00:30:45.981Z,98717.84
2024-03-12T00:33:13.031Z,98721.09
2024-03-12T00:35:44.221Z,98719.91
2024-03-12T00:38:11.742Z,98720.75
2024-03-12T00:40:40.092Z,98718.75
2024-03-12T00:43:08.666Z,98725.38
2024-03-12T00:45:39.838Z,98736.16
2024-03-12T00:48:11.165Z,98733.94
2024-03-12T00:50:39.137Z,98728.78
2024-03-12T00:53:06.483Z,98735.25
2024-03-12T00:55:33.152Z,98724.22
2024-03-12T00:58:00.296Z,98734.59
2024-03-12T01:00:30.100Z,98721.88
2024-03-12T01:02:59.730Z,98722.94
2024-03-12T01:05:28.199Z,98735.97
2024-03-12T01:07:56.094Z,98735.06
2024-03-12T01:10:22.874Z,98732.69
2024-03-12T01:12:52.876Z,98747.50
2024-03-12T01:15:20.919Z,98732.06
2024-03-12T01:17:51.401Z,98732.25
2024-03-12T01:20:21.787Z,98739.97
2024-03-12T01:22:48.825Z,98743.59
2024-03-12T01:25:16.327Z,98742.78
2024-03-12T01:27:43.546Z,98734.03
2024-03-12T01:30:18.016Z,98742.78
2024-03-12T01:32:49.241Z,98745.81
2024-03-12T01:35:16.047Z,98740.63
2024-03-12T01:37:46.855Z,98752.34
2024-03-12T01:40:22.734Z,98755.81
2024-03-12T01:42:53.681Z,98749.94
2024-03-12T01:45:23.643Z,98762.69
2024-03-12T01:47:51.503Z,98758.25
2024-03-12T01:50:19.583Z,98757.50
2024-03-12T01:52:47.681Z,98749.75
2024-03-12T01:55:19.818Z,98727.47
2024-03-12T01:57:47.442Z,98754.16
2024-03-12T02:00:15.965Z,98750.03
2024-03-12T02:02:43.930Z,98766.59
2024-03-12T02:05:11.673Z,98751.38
2024-03-12T02:07:50.200Z,98751.09
2024-03-12T02:10:20.169Z,98766.66
2024-03-12T02:12:47.902Z,98770.91
2024-03-12T02:15:19.361Z,98770.13
2024-03-12T02:17:46.678Z,98766.59
2024-03-12T02:20:14.143Z,98777.78
2024-03-12T02:22:41.280Z,98771.66
2024-03-12T02:25:12.242Z,98772.44
2024-03-12T02:27:41.403Z,98780.28
2024-03-12T02:30:09.782Z,98774.09
2024-03-12T02:32:37.395Z,98775.22
2024-03-12T02:35:04.356Z,98778.72
2024-03-12T02:37:30.836Z,98779.41
2024-03-12T02:39:57.429Z,98784.50
2024-03-12T02:42:24.030Z,98781.66
2024-03-12T02:44:50.582Z,98775.06
2024-03-12T02:47:21.055Z,98781.06
2024-03-12T02:49:49.575Z,98785.47
2024-03-12T02:52:16.125Z,98782.03
2024-03-12T02:54:45.438Z,98788.84
2024-03-12T02:57:12.534Z,98788.88
2024-03-12T02:59:39.442Z,98780.19
2024-03-12T03:02:06.356Z,98789.56
2024-03-12T03:04:37.958Z,98789.34
2024-03-12T03:07:05.716Z,98810.78
2024-03-12T03:09:32.623Z,98778.38
2024-03-12T03:12:00.929Z,98800.59
2024-03-12T03:14:27.474Z,98798.91
2024-03-12T03:16:55.428Z,98795.47
2024-03-12T03:19:24.013Z,98797.25
2024-03-12T03:21:50.645Z,98787.69
2024-03-12T03:24:17.276Z,98792.78
2024-03-12T03:26:43.926Z,98802.13
2024-03-12T03:29:10.499Z,98806.19
2024-03-12T03:31:36.982Z,98802.34
2024-03-12T03:34:05.951Z,98805.81
2024-03-12T03:36:33.434Z,98808.63
2024-03-12T03:39:00.084Z,98818.97
2024-03-12T03:41:26.747Z,98814.69
2024-03-12T03:43:53.412Z,98814.69
2024-03-12T03:46:20.631Z,98820.53
2024-03-12T03:48:47.403Z,98817.16
2024-03-12T03:51:15.644Z,98809.66
2024-03-12T03:53:42.212Z,98823.34
2024-03-12T03:56:16.768Z,98815.50
2024-03-12T03:58:44.672Z,98810.34
2024-03-12T04:01:11.886Z,98815.00
2024-03-12T04:03:40.191Z,98812.41
2024-03-12T04:06:08.310Z,98820.09
2024-03-12T04:08:39.454Z,98812.34
2024-03-12T04:11:06.227Z,98813.28
2024-03-12T04:13:36.217Z,98816.81
2024-03-12T04:16:02.824Z,98823.50
2024-03-12T04:18:30.178Z,98825.25
2024-03-12T04:20:57.213Z,98820.19
2024-03-12T04:23:23.894Z,98815.94
2024-03-12T04:25:50.393Z,98830.72
2024-03-12T04:28:19.122Z,98826.63
2024-03-12T04:30:45.701Z,98837.69
2024-03-12T04:33:12.506Z,98833.19
2024-03-12T04:35:39.286Z,98839.13
2024-03-12T04:38:06.027Z,98845.22
2024-03-12T04:40:32.673Z,98834.13
2024-03-12T04:42:59.472Z,98838.44
2024-03-12T04:45:26.326Z,98846.09
2024-03-12T04:47:53.335Z,98848.78
2024-03-12T04:50:24.167Z,98843.69
2024-03-12T04:52:51.333Z,98850.59
2024-03-12T04:55:18.189Z,98857.56
2024-03-12T04:57:45.049Z,98857.44
2024-03-12T05:00:16.275Z,98866.19
2024-03-12T05:02:43.690Z,98860.97
2024-03-12T05:05:10.600Z,98866.13
2024-03-12T05:07:37.238Z,98869.50
2024-03-12T05:10:05.788Z,98866.19
2024-03-12T05:12:32.564Z,98873.00
2024-03-12T05:14:59.276Z,98880.81
2024-03-12T05:17:25.746Z,98882.53
2024-03-12T05:19:52.238Z,98870.56
2024-03-12T05:22:18.769Z,98885.97
2024-03-12T05:24:45.374Z,98887.00
2024-03-12T05:27:16.782Z,98885.91
2024-03-12T05:29:53.519Z,98895.19
2024-03-12T05:32:20.277Z,98899.59
2024-03-12T05:34:48.818Z,98886.84
2024-03-12T05:37:42.208Z,98899.63
2024-03-12T05:40:14.707Z,98899.78
2024-03-12T05:42:59.658Z,98906.66
2024-03-12T05:45:44.903Z,98879.19
2024-03-12T05:48:11.677Z,98907.53
2024-03-12T05:50:42.617Z,98905.13
2024-03-12T05:53:09.694Z,98910.38
2024-03-12T05:55:36.412Z,98919.84
2024-03-12T05:58:05.861Z,98913.81
2024-03-12T06:00:33.627Z,98914.81
2024-03-12T06:03:00.707Z,98922.56
2024-03-12T06:05:27.617Z,98920.78
2024-03-12T06:07:54.984Z,98926.06
2024-03-12T06:10:23.098Z,98931.25
2024-03-12T06:12:50.685Z,98928.66
2024-03-12T06:15:17.799Z,98925.34
2024-03-12T06:17:44.627Z,98928.91
2024-03-12T06:20:14.125Z,98930.59
2024-03-12T06:22:41.142Z,98920.25
2024-03-12T06:25:10.542Z,98923.75
2024-03-12T06:27:39.339Z,98933.03
2024-03-12T06:30:07.268Z,98934.75
2024-03-12T06:32:34.346Z,98940.78
2024-03-12T06:35:01.871Z,98931.31
2024-03-12T06:37:31.184Z,98937.44
2024-03-12T06:39:59.057Z,98933.88
2024-03-12T06:42:31.024Z,98936.41
2024-03-12T06:44:58.178Z,98949.31
2024-03-12T06:47:27.993Z,98943.97
2024-03-12T06:49:55.628Z,98953.38
2024-03-12T06:52:27.781Z,98957.59
2024-03-12T06:54:54.571Z,98967.72
2024-03-12T06:57:23.491Z,98951.28
2024-03-12T06:59:50.347Z,98951.25
2024-03-12T07:02:19.725Z,98959.59
2024-03-12T07:04:48.563Z,98956.59
2024-03-12T07:07:21.990Z,98951.22
2024-03-12T07:09:50.441Z,98958.91
2024-03-12T07:12:17.940Z,98960.53
2024-03-12T07:14:46.915Z,98963.81
2024-03-12T07:17:15.697Z,98966.38
2024-03-12T07:19:43.881Z,98971.50
2024-03-12T07:22:12.232Z,98965.50
2024-03-12T07:24:42.150Z,98974.69
2024-03-12T07:27:10.450Z,98981.50
2024-03-12T07:29:37.534Z,98983.56
2024-03-12T07:32:06.095Z,98984.31
2024-03-12T07:34:33.422Z,98989.25
2024-03-12T07:37:00.986Z,98989.78
2024-03-12T07:39:38.266Z,98985.28
2024-03-12T07:42:14.462Z,98988.56
2024-03-12T07:44:43.181Z,98982.00
2024-03-12T07:47:11.620Z,98995.41
2024-03-12T07:49:38.597Z,98994.44
2024-03-12T07:52:07.290Z,99001.22
2024-03-12T07:54:34.610Z,98996.91
2024-03-12T07:57:01.622Z,99005.34
2024-03-12T07:59:31.449Z,99003.81
2024-03-12T08:01:59.058Z,99004.59
2024-03-12T08:04:26.574Z,99001.72
2024-03-12T08:06:54.191Z,99009.59
2024-03-12T08:09:20.915Z,99014.00
2024-03-12T08:11:49.686Z,99018.38
2024-03-12T08:14:17.924Z,99006.41
2024-03-12T08:16:44.602Z,99019.34
2024-03-12T08:19:12.935Z,99012.38
2024-03-12T08:21:40.127Z,99021.69
2024-03-12T08:24:06.956Z,99026.97
2024-03-12T08:26:33.505Z,99017.53
2024-03-12T08:29:00.060Z,99021.97
2024-03-12T08:31:33.326Z,99022.69
2024-03-12T08:34:06.291Z,99031.50
2024-03-12T08:36:34.543Z,99023.69
2024-03-12T08:39:01.989Z,99024.47
2024-03-12T08:41:28.588Z,99023.69
2024-03-12T08:43:55.374Z,99029.72
2024-03-12T08:46:21.916Z,99029.75
2024-03-12T08:48:48.728Z,99037.47
2024-03-12T08:51:15.266Z,99030.75
2024-03-12T08:53:41.874Z,99038.63
2024-03-12T08:56:08.404Z,99030.00
2024-03-12T08:58:34.995Z,99038.44
2024-03-12T09:01:01.723Z,99045.25
2024-03-12T09:03:30.420Z,99045.19
2024-03-12T09:05:57.208Z,99055.25
2024-03-12T09:08:25.420Z,99055.06
2024-03-12T09:10:52.316Z,99055.88
2024-03-12T09:13:20.676Z,99055.91
2024-03-12T09:15:49.725Z,99058.53
2024-03-12T09:18:24.451Z,99055.16
2024-03-12T09:20:53.564Z,99058.50
2024-03-12T09:23:20.312Z,99062.06
2024-03-12T09:25:47.099Z,99066.22
2024-03-12T09:28:17.902Z,99064.56
2024-03-12T09:30:44.792Z,99058.31
2024-03-12T09:33:12.117Z,99067.00
2024-03-12T09:35:39.260Z,99065.22
2024-03-12T09:38:10.610Z,99070.50
2024-03-12T09:40:37.954Z,99073.91
2024-03-12T09:43:05.339Z,99070.53
2024-03-12T09:45:32.689Z,99070.53
2024-03-12T09:48:00.033Z,99078.06
2024-03-12T09:50:30.725Z,99081.25
2024-03-12T09:52:58.468Z,99081.41
2024-03-12T09:55:26.464Z,99088.88
2024-03-12T09:57:54.184Z,99089.94
2024-03-12T10:00:23.958Z,99086.22
2024-03-12T10:02:51.192Z,99090.41
2024-03-12T10:05:23.254Z,99086.97
2024-03-12T10:08:10.060Z,99086.50
2024-03-12T10:10:39.038Z,99097.78
2024-03-12T10:13:06.686Z,99079.66
2024-03-12T10:15:33.316Z,99097.59
2024-03-12T10:18:01.297Z,99088.13
2024-03-12T10:20:28.463Z,99088.19
2024-03-12T10:23:11.237Z,99084.00
2024-03-12T10:25:40.744Z,99102.03
2024-03-12T10:28:08.456Z,99101.66
2024-03-12T10:30:43.453Z,99092.94
2024-03-12T10:33:18.525Z,99091.75
2024-03-12T10:35:46.682Z,99092.53
2024-03-12T10:38:14.690Z,99100.03
2024-03-12T10:40:42.645Z,99100.13
2024-03-12T10:43:09.788Z,99094.94
2024-03-12T10:45:37.021Z,99103.31
2024-03-12T10:48:07.411Z,99106.72
2024-03-12T10:50:35.549Z,99108.69
2024-03-12T10:53:02.390Z,99100.06
2024-03-12T10:55:34.271Z,99102.69
2024-03-12T10:58:03.789Z,99111.53
2024-03-12T11:00:31.671Z,99098.50
2024-03-12T11:02:58.847Z,99100.72
2024-03-12T11:05:28.155Z,99108.97
2024-03-12T11:07:57.284Z,99110.78
2024-03-12T11:10:26.628Z,99112.03
2024-03-12T11:12:55.506Z,99109.31
2024-03-12T11:15:24.352Z,99101.34
2024-03-12T11:17:52.809Z,99110.03
2024-03-12T11:20:27.490Z,99110.78
2024-03-12T11:22:57.613Z,99121.94
2024-03-12T11:25:51.404Z,99116.84
2024-03-12T11:28:20.693Z,99104.66
2024-03-12T11:31:02.030Z,99109.56
2024-03-12T11:33:50.691Z,99107.69
2024-03-12T11:36:32.884Z,99112.53
2024-03-12T11:39:05.408Z,99111.56
2024-03-12T11:42:07.136Z,99110.19
2024-03-12T11:44:45.982Z,99114.56
2024-03-12T11:47:36.322Z,99119.78
2024-03-12T11:50:05.273Z,99114.69
2024-03-12T11:52:33.568Z,99109.13
2024-03-12T11:55:00.756Z,99115.47
2024-03-12T11:57:31.052Z,99105.16
2024-03-12T11:59:59.200Z,99105.06
2024-03-12T12:02:27.644Z,99106.78
2024-03-12T12:04:59.058Z,99106.81
2024-03-12T12:07:27.114Z,99111.03
2024-03-12T12:09:54.124Z,99102.69
2024-03-12T12:12:21.393Z,99100.84
2024-03-12T12:14:53.760Z,99110.16
2024-03-12T12:17:25.294Z,99112.69
2024-03-12T12:20:05.862Z,99117.59
2024-03-12T12:22:36.377Z,99121.13
2024-03-12T12:25:04.043Z,99114.19
2024-03-12T12:27:33.327Z,99119.34
2024-03-12T12:30:01.571Z,99121.09
2024-03-12T12:32:30.099Z,99121.00
2024-03-12T12:34:58.062Z,99130.44
2024-03-12T12:37:24.882Z,99125.25
2024-03-12T12:39:54.070Z,99126.66
2024-03-12T12:42:25.363Z,99129.22
2024-03-12T12:44:55.447Z,99127.69
2024-03-12T12:47:27.264Z,99131.00
2024-03-12T12:49:54.243Z,99129.34
2024-03-12T12:52:21.145Z,99130.28
2024-03-12T12:54:50.105Z,99136.38
2024-03-12T12:57:16.878Z,99130.25
2024-03-12T12:59:43.508Z,99130.91
2024-03-12T13:02:19.776Z,99127.66
2024-03-12T13:04:46.427Z,99133.88
2024-03-12T13:07:29.118Z,99130.25
2024-03-12T13:10:10.483Z,99131.28
2024-03-12T13:12:37.890Z,99138.31
2024-03-12T13:15:05.262Z,99132.53
2024-03-12T13:17:32.194Z,99123.69
2024-03-12T13:19:58.858Z,99121.06
2024-03-12T13:24:52.460Z,99131.25
2024-03-12T13:27:19.069Z,99124.44
2024-03-12T13:29:46.636Z,99133.13
2024-03-12T13:32:13.810Z,99131.28
2024-03-12T13:34:40.484Z,99141.88
2024-03-12T13:37:08.651Z,99140.34
2024-03-12T13:39:35.361Z,99138.78
2024-03-12T13:42:02.007Z,99144.75
2024-03-12T13:44:28.674Z,99132.75
2024-03-12T13:46:55.511Z,99135.53
2024-03-12T13:49:26.793Z,99139.75
2024-03-12T13:51:53.714Z,99136.31
2024-03-12T13:54:21.106Z,99133.75
2024-03-12T13:56:47.796Z,99130.25
2024-03-12T13:59:16.173Z,99138.00
2024-03-12T14:01:43.827Z,99133.63
2024-03-12T14:04:12.914Z,99136.19
2024-03-12T14:06:39.733Z,99143.91
2024-03-12T14:09:12.834Z,99145.66
2024-03-12T14:11:40.086Z,99140.34
2024-03-12T14:14:07.675Z,99132.66
2024-03-12T14:16:34.204Z,99132.84
2024-03-12T14:19:00.805Z,99137.06
2024-03-12T14:21:31.506Z,99144.88
2024-03-12T14:24:00.293Z,99132.00
2024-03-12T14:26:26.878Z,99138.84
2024-03-12T14:28:53.457Z,99139.00
2024-03-12T14:31:20.074Z,99146.63
2024-03-12T14:33:49.015Z,99143.31
2024-03-12T14:36:16.318Z,99137.00
2024-03-12T14:38:42.941Z,99135.34
2024-03-12T14:41:09.572Z,99130.91
2024-03-12T14:43:36.178Z,99130.81
2024-03-12T14:46:03.975Z,99135.13
2024-03-12T14:48:30.609Z,99135.16
2024-03-12T14:50:57.609Z,99136.81
2024-03-12T14:53:24.420Z,99143.81
2024-03-12T14:55:50.978Z,99147.25
2024-03-12T14:58:19.083Z,99144.94
2024-03-12T15:00:45.735Z,99151.91
2024-03-12T15:03:13.752Z,99154.75
2024-03-12T15:05:41.360Z,99157.06
2024-03-12T15:08:11.701Z,99151.97
2024-03-12T15:10:38.553Z,99153.72
2024-03-12T15:13:08.162Z,99150.19
2024-03-12T15:15:36.480Z,99151.00
2024-03-12T15:18:03.400Z,99153.59
2024-03-12T15:20:31.191Z,99155.56
2024-03-12T15:23:00.002Z,99156.47
2024-03-12T15:25:29.150Z,99160.81
2024-03-12T15:27:56.012Z,99161.91
2024-03-12T15:30:23.006Z,99159.41
2024-03-12T15:32:50.077Z,99167.19
2024-03-12T15:35:16.757Z,99162.00
2024-03-12T15:37:43.538Z,99162.88
2024-03-12T15:40:12.049Z,99166.22
2024-03-12T15:42:41.164Z,99154.22
2024-03-12T15:45:12.605Z,99163.63
2024-03-12T15:47:40.921Z,99156.81
2024-03-12T15:50:08.978Z,99162.00
2024-03-12T15:52:35.766Z,99162.00
2024-03-12T15:55:05.601Z,99168.00
2024-03-12T15:57:32.212Z,99154.47
2024-03-12T15:59:58.805Z,99176.56
2024-03-12T16:02:26.097Z,99180.97
2024-03-12T16:04:53.490Z,99185.13
2024-03-12T16:07:20.211Z,99174.00
2024-03-12T16:09:47.141Z,99183.56
2024-03-12T16:12:14.877Z,99182.66
2024-03-12T16:14:42.713Z,99181.03
2024-03-12T16:17:11.083Z,99177.53
2024-03-12T16:19:37.973Z,99177.63
2024-03-12T16:22:04.855Z,99184.56
2024-03-12T16:24:32.784Z,99188.97
2024-03-12T16:27:00.146Z,99183.94
2024-03-12T16:29:27.941Z,99190.75
2024-03-12T16:31:54.849Z,99192.53
2024-03-12T16:34:22.186Z,99192.41
2024-03-12T16:36:49.037Z,99186.31
2024-03-12T16:39:15.853Z,99187.22
2024-03-12T16:41:43.810Z,99192.31
2024-03-12T16:44:10.823Z,99197.50
2024-03-12T16:46:37.767Z,99193.28
2024-03-12T16:49:05.104Z,99196.03
2024-03-12T16:51:35.216Z,99196.75
2024-03-12T16:54:03.772Z,99197.13
2024-03-12T16:56:33.582Z,99198.75
2024-03-12T16:59:03.650Z,99196.22
2024-03-12T17:01:32.001Z,99205.75
2024-03-12T17:03:59.119Z,99200.75
2024-03-12T17:06:27.254Z,99210.28
2024-03-12T17:08:54.659Z,99206.16
2024-03-12T17:11:22.252Z,99203.56
2024-03-12T17:13:49.203Z,99209.66
2024-03-12T17:16:18.643Z,99216.44
2024-03-12T17:18:45.937Z,99219.16
2024-03-12T17:21:12.928Z,99215.66
2024-03-12T17:23:39.919Z,99225.94
2024-03-12T17:26:06.702Z,99224.44
2024-03-12T17:28:34.381Z,99226.25
2024-03-12T17:31:01.453Z,99220.44
2024-03-12T17:33:28.308Z,99234.19
2024-03-12T17:35:56.129Z,99223.84
2024-03-12T17:38:25.905Z,99240.28
2024-03-12T17:40:59.255Z,99246.34
2024-03-12T17:43:30.457Z,99246.34
2024-03-12T17:45:57.598Z,99249.00
2024-03-12T17:48:29.168Z,99236.13
2024-03-12T17:50:56.017Z,99246.34
2024-03-12T17:53:23.224Z,99248.78
2024-03-12T17:55:50.644Z,99257.47
2024-03-12T17:58:17.989Z,99249.78
2024-03-12T18:00:45.501Z,99255.69
2024-03-12T18:03:12.721Z,99255.78
2024-03-12T18:05:39.481Z,99230.94
2024-03-12T18:08:14.147Z,99258.28
2024-03-12T18:10:43.333Z,99260.94
2024-03-12T18:13:11.923Z,99268.72
2024-03-12T18:15:38.637Z,99279.16
2024-03-12T18:18:06.268Z,99280.97
2024-03-12T18:20:34.801Z,99275.00
2024-03-12T18:23:01.481Z,99278.50
2024-03-12T18:25:28.327Z,99286.16
2024-03-12T18:27:57.384Z,99276.63
2024-03-12T18:30:24.164Z,99280.22
2024-03-12T18:32:51.106Z,99288.91
2024-03-12T18:35:19.891Z,99288.06
2024-03-12T18:37:46.671Z,99287.19
2024-03-12T18:40:14.868Z,99278.66
2024-03-12T18:42:43.629Z,99292.38
2024-03-12T18:45:14.249Z,99304.47
2024-03-12T18:47:41.638Z,99300.22
2024-03-12T18:50:10.993Z,99300.22
2024-03-12T18:52:39.022Z,99295.09
2024-03-12T18:55:12.402Z,99301.94
2024-03-12T18:57:44.766Z,99299.44
2024-03-12T19:00:20.023Z,99298.63
2024-03-12T19:02:48.323Z,99303.69
2024-03-12T19:05:19.486Z,99294.25
2024-03-12T19:07:47.457Z,99304.47
2024-03-12T19:10:15.521Z,99296.69
2024-03-12T19:12:42.998Z,99298.44
2024-03-12T19:15:12.097Z,99295.03
2024-03-12T19:17:41.484Z,99281.22
2024-03-12T19:20:16.125Z,99282.97
2024-03-12T19:22:44.784Z,99281.97
2024-03-12T19:25:14.037Z,99290.59
2024-03-12T19:27:43.474Z,99289.78
2024-03-12T19:30:14.365Z,99282.94
2024-03-12T19:32:46.949Z,99282.91
2024-03-12T19:35:14.510Z,99260.75
2024-03-12T19:37:43.048Z,99284.75
2024-03-12T19:40:13.274Z,99279.63
2024-03-12T19:42:45.030Z,99279.59
2024-03-12T19:45:13.459Z,99277.03
2024-03-12T19:47:46.535Z,99273.59
2024-03-12T19:50:26.944Z,99278.06
2024-03-12T19:52:56.274Z,99284.03
2024-03-12T19:55:27.501Z,99275.44
2024-03-12T19:57:57.808Z,99278.00
2024-03-12T20:00:34.843Z,99283.31
2024-03-12T20:03:05.990Z,99284.22
2024-03-12T20:05:33.913Z,99276.47
2024-03-12T20:08:03.292Z,99285.09
2024-03-12T20:10:30.429Z,99282.50
2024-03-12T20:12:58.945Z,99286.81
2024-03-12T20:15:25.924Z,99281.63
2024-03-12T20:17:52.490Z,99291.13
2024-03-12T20:20:19.158Z,99282.50
2024-03-12T20:22:52.818Z,99286.81
2024-03-12T20:25:20.806Z,99285.22
2024-03-12T20:27:55.027Z,99283.50
2024-03-12T20:30:27.474Z,99286.13
2024-03-12T20:32:59.981Z,99286.06
2024-03-12T20:35:29.036Z,99285.28
2024-03-12T20:37:56.552Z,99293.09
2024-03-12T20:40:26.086Z,99293.84
2024-03-12T20:42:53.420Z,99294.72
2024-03-12T20:45:23.478Z,99291.31
2024-03-12T20:47:50.293Z,99300.81
2024-03-12T20:50:19.731Z,99297.38
2024-03-12T20:52:47.444Z,99302.59
2024-03-12T20:55:17.490Z,99292.38
2024-03-12T20:57:48.295Z,99298.34
2024-03-12T21:00:25.196Z,99295.81
2024-03-12T21:02:53.106Z,99305.25
2024-03-12T21:05:20.112Z,99303.53
2024-03-12T21:07:46.681Z,99301.00
2024-03-12T21:10:13.372Z,99303.59
2024-03-12T21:12:40.659Z,99292.44
2024-03-12T21:15:08.221Z,99303.81
2024-03-12T21:17:35.804Z,99297.81
2024-03-12T21:20:13.095Z,99290.94
2024-03-12T21:22:40.306Z,99301.28
2024-03-12T21:25:08.187Z,99298.75
2024-03-12T21:27:34.997Z,99300.56
2024-03-12T21:30:02.508Z,99302.28
2024-03-12T21:32:29.225Z,99305.75
2024-03-12T21:34:55.864Z,99306.50
2024-03-12T21:37:23.203Z,99301.41
2024-03-12T21:39:50.004Z,99304.78
2024-03-12T21:42:17.659Z,99302.19
2024-03-12T21:44:45.475Z,99307.31
2024-03-12T21:47:12.235Z,99321.91
2024-03-12T21:49:38.902Z,99322.72
2024-03-12T21:52:06.038Z,99305.53
2024-03-12T21:54:32.607Z,99312.47
2024-03-12T21:57:00.390Z,99312.53
2024-03-12T21:59:26.959Z,99314.19
2024-03-12T22:01:54.429Z,99307.31
2024-03-12T22:04:23.849Z,99315.13
2024-03-12T22:06:51.188Z,99313.41
2024-03-12T22:09:17.943Z,99321.22
2024-03-12T22:11:44.590Z,99327.19
2024-03-12T22:14:11.195Z,99319.44
2024-03-12T22:16:39.364Z,99309.16
2024-03-12T22:19:09.727Z,99322.09
2024-03-12T22:21:37.320Z,99314.31
2024-03-12T22:24:05.474Z,99306.59
2024-03-12T22:26:32.341Z,99324.72
2024-03-12T22:28:58.989Z,99311.06
2024-03-12T22:31:25.521Z,99324.81
2024-03-12T22:33:52.142Z,99334.38
2024-03-12T22:36:18.704Z,99327.44
2024-03-12T22:38:45.573Z,99334.31
2024-03-12T22:41:12.322Z,99310.25
2024-03-12T22:43:39.657Z,99334.31
2024-03-12T22:46:07.634Z,99331.69
2024-03-12T22:48:34.939Z,99328.31
2024-03-12T22:51:03.008Z,99326.59
2024-03-12T22:53:32.683Z,99322.31
2024-03-12T22:56:00.073Z,99339.53
2024-03-12T22:58:28.267Z,99343.81
2024-03-12T23:00:55.935Z,99341.28
2024-03-12T23:03:23.657Z,99341.28
2024-03-12T23:05:50.523Z,99339.66
2024-03-12T23:08:20.450Z,99343.97
2024-03-12T23:10:48.137Z,99349.16
2024-03-12T23:13:17.340Z,99349.13
2024-03-12T23:15:44.590Z,99348.22
2024-03-12T23:18:12.931Z,99356.03
2024-03-12T23:20:41.449Z,99358.59
2024-03-12T23:23:08.651Z,99338.91
2024-03-12T23:25:35.763Z,99346.63
2024-03-12T23:28:02.299Z,99350.09
2024-03-12T23:30:28.923Z,99356.13
2024-03-12T23:32:59.125Z,99353.56
2024-03-12T23:35:28.178Z,99356.13
2024-03-12T23:38:01.259Z,99355.28
2024-03-12T23:40:29.204Z,99348.38
2024-03-12T23:42:56.264Z,99356.97
2024-03-12T23:45:23.918Z,99353.47
2024-03-12T23:47:52.849Z,99354.38
2024-03-12T23:50:20.027Z,99352.66
2024-03-12T23:52:50.058Z,99353.53
2024-03-12T23:55:16.839Z,99355.25
2024-03-12T23:57:44.107Z,99350.13
